sensor_id;sensor_type;location;lat;lon;timestamp;P1;durP1;ratioP1;P2;durP2;ratioP2
5684;SDS011;2865;53.114;9.130;2023-03-25T00:00:42;5.00;;;4.47;;
5684;SDS011;2865;53.114;9.130;2023-03-25T00:03:08;5.37;;;4.00;;
5684;SDS011;2865;53.114;9.130;2023-03-25T00:05:33;8.00;;;4.33;;
5684;SDS011;2865;53.114;9.130;2023-03-25T00:07:58;5.40;;;4.77;;
5684;SDS011;2865;53.114;9.130;2023-03-25T00:10:24;5.27;;;4.23;;
5684;SDS011;2865;53.114;9.130;2023-03-25T00:12:49;4.70;;;4.30;;
5684;SDS011;2865;53.114;9.130;2023-03-25T00:15:15;7.93;;;4.50;;
5684;SDS011;2865;53.114;9.130;2023-03-25T00:17:40;6.53;;;4.27;;
5684;SDS011;2865;53.114;9.130;2023-03-25T00:20:06;6.43;;;5.00;;
5684;SDS011;2865;53.114;9.130;2023-03-25T00:22:33;4.50;;;4.10;;
5684;SDS011;2865;53.114;9.130;2023-03-25T00:24:58;6.50;;;3.93;;
5684;SDS011;2865;53.114;9.130;2023-03-25T00:27:24;6.47;;;4.60;;
5684;SDS011;2865;53.114;9.130;2023-03-25T00:29:49;5.53;;;4.00;;
5684;SDS011;2865;53.114;9.130;2023-03-25T00:32:15;5.23;;;3.50;;
5684;SDS011;2865;53.114;9.130;2023-03-25T00:34:40;5.77;;;4.10;;
5684;SDS011;2865;53.114;9.130;2023-03-25T00:37:07;11.63;;;4.70;;
5684;SDS011;2865;53.114;9.130;2023-03-25T00:39:32;8.40;;;4.13;;
5684;SDS011;2865;53.114;9.130;2023-03-25T00:41:57;6.40;;;4.40;;
5684;SDS011;2865;53.114;9.130;2023-03-25T00:44:22;5.40;;;4.00;;
5684;SDS011;2865;53.114;9.130;2023-03-25T00:46:48;8.90;;;4.30;;
5684;SDS011;2865;53.114;9.130;2023-03-25T00:49:13;5.10;;;3.87;;
5684;SDS011;2865;53.114;9.130;2023-03-25T00:51:38;4.27;;;3.87;;
5684;SDS011;2865;53.114;9.130;2023-03-25T00:54:04;3.90;;;3.60;;
5684;SDS011;2865;53.114;9.130;2023-03-25T00:56:29;6.10;;;4.00;;
5684;SDS011;2865;53.114;9.130;2023-03-25T00:58:55;7.70;;;4.93;;
5684;SDS011;2865;53.114;9.130;2023-03-25T01:01:21;7.63;;;4.60;;
5684;SDS011;2865;53.114;9.130;2023-03-25T01:03:45;7.23;;;3.67;;
5684;SDS011;2865;53.114;9.130;2023-03-25T01:06:12;4.57;;;3.90;;
5684;SDS011;2865;53.114;9.130;2023-03-25T01:08:37;4.30;;;3.90;;
5684;SDS011;2865;53.114;9.130;2023-03-25T01:11:02;4.77;;;3.20;;
5684;SDS011;2865;53.114;9.130;2023-03-25T01:13:28;6.77;;;3.67;;
5684;SDS011;2865;53.114;9.130;2023-03-25T01:15:53;10.90;;;3.40;;
5684;SDS011;2865;53.114;9.130;2023-03-25T01:18:19;5.50;;;3.20;;
5684;SDS011;2865;53.114;9.130;2023-03-25T01:20:45;5.87;;;3.60;;
5684;SDS011;2865;53.114;9.130;2023-03-25T01:23:10;6.60;;;3.63;;
5684;SDS011;2865;53.114;9.130;2023-03-25T01:25:35;4.93;;;3.37;;
5684;SDS011;2865;53.114;9.130;2023-03-25T01:28:01;5.83;;;3.13;;
5684;SDS011;2865;53.114;9.130;2023-03-25T01:30:26;3.17;;;2.93;;
5684;SDS011;2865;53.114;9.130;2023-03-25T01:32:51;4.50;;;3.07;;
5684;SDS011;2865;53.114;9.130;2023-03-25T01:35:17;4.60;;;3.23;;
5684;SDS011;2865;53.114;9.130;2023-03-25T01:37:42;4.43;;;3.20;;
5684;SDS011;2865;53.114;9.130;2023-03-25T01:40:09;5.63;;;3.40;;
5684;SDS011;2865;53.114;9.130;2023-03-25T01:42:34;7.90;;;3.10;;
5684;SDS011;2865;53.114;9.130;2023-03-25T01:47:39;7.90;;;3.27;;
5684;SDS011;2865;53.114;9.130;2023-03-25T01:50:04;2.73;;;2.53;;
5684;SDS011;2865;53.114;9.130;2023-03-25T01:52:30;5.37;;;3.80;;
5684;SDS011;2865;53.114;9.130;2023-03-25T01:54:56;4.20;;;3.40;;
5684;SDS011;2865;53.114;9.130;2023-03-25T01:57:22;4.77;;;3.50;;
5684;SDS011;2865;53.114;9.130;2023-03-25T01:59:46;5.10;;;3.40;;
5684;SDS011;2865;53.114;9.130;2023-03-25T02:02:12;6.10;;;3.07;;
5684;SDS011;2865;53.114;9.130;2023-03-25T02:04:44;9.67;;;2.90;;
5684;SDS011;2865;53.114;9.130;2023-03-25T02:07:15;3.90;;;3.50;;
5684;SDS011;2865;53.114;9.130;2023-03-25T02:09:40;4.07;;;3.67;;
5684;SDS011;2865;53.114;9.130;2023-03-25T02:12:06;3.40;;;3.10;;
5684;SDS011;2865;53.114;9.130;2023-03-25T02:14:31;4.33;;;3.40;;
5684;SDS011;2865;53.114;9.130;2023-03-25T02:17:02;5.73;;;2.80;;
5684;SDS011;2865;53.114;9.130;2023-03-25T02:19:40;3.50;;;3.00;;
5684;SDS011;2865;53.114;9.130;2023-03-25T02:22:08;3.50;;;2.83;;
5684;SDS011;2865;53.114;9.130;2023-03-25T02:24:38;4.10;;;2.97;;
5684;SDS011;2865;53.114;9.130;2023-03-25T02:27:13;3.27;;;2.77;;
5684;SDS011;2865;53.114;9.130;2023-03-25T02:29:48;2.43;;;2.33;;
5684;SDS011;2865;53.114;9.130;2023-03-25T02:32:18;5.53;;;2.80;;
5684;SDS011;2865;53.114;9.130;2023-03-25T02:35:01;7.60;;;3.20;;
5684;SDS011;2865;53.114;9.130;2023-03-25T02:37:40;8.00;;;2.70;;
5684;SDS011;2865;53.114;9.130;2023-03-25T02:39:59;3.13;;;2.63;;
5684;SDS011;2865;53.114;9.130;2023-03-25T02:42:41;2.53;;;2.43;;
5684;SDS011;2865;53.114;9.130;2023-03-25T02:45:14;4.00;;;2.50;;
5684;SDS011;2865;53.114;9.130;2023-03-25T02:47:41;4.00;;;2.77;;
5684;SDS011;2865;53.114;9.130;2023-03-25T02:50:09;3.63;;;2.80;;
5684;SDS011;2865;53.114;9.130;2023-03-25T02:52:35;3.10;;;2.90;;
5684;SDS011;2865;53.114;9.130;2023-03-25T02:55:02;3.37;;;2.57;;
5684;SDS011;2865;53.114;9.130;2023-03-25T02:57:27;3.17;;;2.60;;
5684;SDS011;2865;53.114;9.130;2023-03-25T02:59:53;9.70;;;3.00;;
5684;SDS011;2865;53.114;9.130;2023-03-25T03:02:18;4.90;;;2.70;;
5684;SDS011;2865;53.114;9.130;2023-03-25T03:04:47;3.03;;;2.70;;
5684;SDS011;2865;53.114;9.130;2023-03-25T03:07:14;2.70;;;2.50;;
5684;SDS011;2865;53.114;9.130;2023-03-25T03:09:39;3.00;;;2.70;;
5684;SDS011;2865;53.114;9.130;2023-03-25T03:12:12;3.20;;;2.67;;
5684;SDS011;2865;53.114;9.130;2023-03-25T03:17:41;7.23;;;2.97;;
5684;SDS011;2865;53.114;9.130;2023-03-25T03:20:15;3.87;;;3.13;;
5684;SDS011;2865;53.114;9.130;2023-03-25T03:22:39;2.50;;;2.30;;
5684;SDS011;2865;53.114;9.130;2023-03-25T03:25:13;4.37;;;2.83;;
5684;SDS011;2865;53.114;9.130;2023-03-25T03:27:52;4.20;;;2.60;;
5684;SDS011;2865;53.114;9.130;2023-03-25T03:30:21;10.40;;;3.00;;
5684;SDS011;2865;53.114;9.130;2023-03-25T03:32:53;5.27;;;2.80;;
5684;SDS011;2865;53.114;9.130;2023-03-25T03:35:21;5.80;;;3.20;;
5684;SDS011;2865;53.114;9.130;2023-03-25T03:37:49;3.40;;;2.63;;
5684;SDS011;2865;53.114;9.130;2023-03-25T03:40:14;2.90;;;2.70;;
5684;SDS011;2865;53.114;9.130;2023-03-25T03:42:39;2.60;;;2.40;;
5684;SDS011;2865;53.114;9.130;2023-03-25T03:45:07;4.73;;;3.23;;
5684;SDS011;2865;53.114;9.130;2023-03-25T03:47:34;3.70;;;2.30;;
5684;SDS011;2865;53.114;9.130;2023-03-25T03:49:58;2.73;;;2.30;;
5684;SDS011;2865;53.114;9.130;2023-03-25T03:52:24;10.97;;;2.60;;
5684;SDS011;2865;53.114;9.130;2023-03-25T03:54:51;2.90;;;2.37;;
5684;SDS011;2865;53.114;9.130;2023-03-25T03:57:19;6.50;;;2.77;;
5684;SDS011;2865;53.114;9.130;2023-03-25T03:59:46;3.93;;;2.90;;
5684;SDS011;2865;53.114;9.130;2023-03-25T04:02:21;4.03;;;2.70;;
5684;SDS011;2865;53.114;9.130;2023-03-25T04:04:47;3.33;;;2.90;;
5684;SDS011;2865;53.114;9.130;2023-03-25T04:07:14;2.90;;;2.53;;
5684;SDS011;2865;53.114;9.130;2023-03-25T04:09:41;3.73;;;2.73;;
5684;SDS011;2865;53.114;9.130;2023-03-25T04:12:21;4.73;;;2.80;;
5684;SDS011;2865;53.114;9.130;2023-03-25T04:14:48;3.57;;;3.10;;
5684;SDS011;2865;53.114;9.130;2023-03-25T04:17:13;6.00;;;2.60;;
5684;SDS011;2865;53.114;9.130;2023-03-25T04:19:39;5.27;;;2.60;;
5684;SDS011;2865;53.114;9.130;2023-03-25T04:22:04;6.37;;;2.90;;
5684;SDS011;2865;53.114;9.130;2023-03-25T04:24:30;11.40;;;4.93;;
5684;SDS011;2865;53.114;9.130;2023-03-25T04:26:56;3.97;;;2.57;;
5684;SDS011;2865;53.114;9.130;2023-03-25T04:29:21;3.10;;;2.90;;
5684;SDS011;2865;53.114;9.130;2023-03-25T04:31:46;6.67;;;2.40;;
5684;SDS011;2865;53.114;9.130;2023-03-25T04:34:12;6.43;;;3.30;;
5684;SDS011;2865;53.114;9.130;2023-03-25T04:36:38;6.13;;;3.20;;
5684;SDS011;2865;53.114;9.130;2023-03-25T04:39:04;3.00;;;2.70;;
5684;SDS011;2865;53.114;9.130;2023-03-25T04:41:29;3.47;;;3.00;;
5684;SDS011;2865;53.114;9.130;2023-03-25T04:43:54;7.13;;;3.13;;
5684;SDS011;2865;53.114;9.130;2023-03-25T04:46:20;5.33;;;2.73;;
5684;SDS011;2865;53.114;9.130;2023-03-25T04:48:45;6.97;;;3.30;;
5684;SDS011;2865;53.114;9.130;2023-03-25T04:51:11;5.80;;;3.17;;
5684;SDS011;2865;53.114;9.130;2023-03-25T04:53:36;3.10;;;2.80;;
5684;SDS011;2865;53.114;9.130;2023-03-25T04:56:01;4.77;;;2.80;;
5684;SDS011;2865;53.114;9.130;2023-03-25T04:58:27;5.33;;;3.90;;
5684;SDS011;2865;53.114;9.130;2023-03-25T05:00:52;8.37;;;3.03;;
5684;SDS011;2865;53.114;9.130;2023-03-25T05:03:18;4.40;;;2.83;;
5684;SDS011;2865;53.114;9.130;2023-03-25T05:05:43;11.30;;;3.40;;
5684;SDS011;2865;53.114;9.130;2023-03-25T05:08:08;7.60;;;3.27;;
5684;SDS011;2865;53.114;9.130;2023-03-25T05:10:33;7.57;;;2.80;;
5684;SDS011;2865;53.114;9.130;2023-03-25T05:13:02;4.30;;;2.83;;
5684;SDS011;2865;53.114;9.130;2023-03-25T05:15:26;5.30;;;2.90;;
5684;SDS011;2865;53.114;9.130;2023-03-25T05:17:52;8.63;;;3.83;;
5684;SDS011;2865;53.114;9.130;2023-03-25T05:20:17;9.90;;;3.40;;
5684;SDS011;2865;53.114;9.130;2023-03-25T05:22:42;9.80;;;2.80;;
5684;SDS011;2865;53.114;9.130;2023-03-25T05:25:09;9.50;;;3.57;;
5684;SDS011;2865;53.114;9.130;2023-03-25T05:27:34;6.27;;;3.00;;
5684;SDS011;2865;53.114;9.130;2023-03-25T05:29:59;10.67;;;2.90;;
5684;SDS011;2865;53.114;9.130;2023-03-25T05:32:25;10.30;;;3.10;;
5684;SDS011;2865;53.114;9.130;2023-03-25T05:34:51;5.63;;;3.27;;
5684;SDS011;2865;53.114;9.130;2023-03-25T05:37:15;11.43;;;3.07;;
5684;SDS011;2865;53.114;9.130;2023-03-25T05:39:41;2.93;;;2.60;;
5684;SDS011;2865;53.114;9.130;2023-03-25T05:42:06;3.70;;;2.60;;
5684;SDS011;2865;53.114;9.130;2023-03-25T05:44:32;8.53;;;3.07;;
5684;SDS011;2865;53.114;9.130;2023-03-25T05:46:57;6.90;;;2.70;;
5684;SDS011;2865;53.114;9.130;2023-03-25T05:49:23;10.43;;;3.70;;
5684;SDS011;2865;53.114;9.130;2023-03-25T05:51:49;10.50;;;3.37;;
5684;SDS011;2865;53.114;9.130;2023-03-25T05:54:14;7.63;;;3.10;;
5684;SDS011;2865;53.114;9.130;2023-03-25T05:56:39;5.10;;;2.60;;
5684;SDS011;2865;53.114;9.130;2023-03-25T05:59:05;3.17;;;2.70;;
5684;SDS011;2865;53.114;9.130;2023-03-25T06:01:30;10.70;;;3.30;;
5684;SDS011;2865;53.114;9.130;2023-03-25T06:03:55;4.93;;;2.60;;
5684;SDS011;2865;53.114;9.130;2023-03-25T06:06:21;4.37;;;2.40;;
5684;SDS011;2865;53.114;9.130;2023-03-25T06:08:47;7.87;;;2.90;;
5684;SDS011;2865;53.114;9.130;2023-03-25T06:11:12;8.60;;;3.20;;
5684;SDS011;2865;53.114;9.130;2023-03-25T06:13:38;6.23;;;3.00;;
5684;SDS011;2865;53.114;9.130;2023-03-25T06:16:04;8.17;;;3.30;;
5684;SDS011;2865;53.114;9.130;2023-03-25T06:18:30;12.63;;;2.70;;
5684;SDS011;2865;53.114;9.130;2023-03-25T06:20:55;2.80;;;2.10;;
5684;SDS011;2865;53.114;9.130;2023-03-25T06:23:20;16.00;;;4.10;;
5684;SDS011;2865;53.114;9.130;2023-03-25T06:25:46;6.90;;;2.87;;
5684;SDS011;2865;53.114;9.130;2023-03-25T06:28:11;5.73;;;2.80;;
5684;SDS011;2865;53.114;9.130;2023-03-25T06:30:37;4.17;;;2.30;;
5684;SDS011;2865;53.114;9.130;2023-03-25T06:33:02;8.50;;;2.53;;
5684;SDS011;2865;53.114;9.130;2023-03-25T06:35:27;6.13;;;2.80;;
5684;SDS011;2865;53.114;9.130;2023-03-25T06:37:53;5.43;;;2.90;;
5684;SDS011;2865;53.114;9.130;2023-03-25T06:40:18;6.50;;;2.97;;
5684;SDS011;2865;53.114;9.130;2023-03-25T06:42:44;4.63;;;2.80;;
5684;SDS011;2865;53.114;9.130;2023-03-25T06:45:09;4.70;;;2.40;;
5684;SDS011;2865;53.114;9.130;2023-03-25T06:47:35;4.87;;;2.60;;
5684;SDS011;2865;53.114;9.130;2023-03-25T06:50:00;7.77;;;2.70;;
5684;SDS011;2865;53.114;9.130;2023-03-25T06:52:25;5.53;;;2.80;;
5684;SDS011;2865;53.114;9.130;2023-03-25T06:54:51;3.77;;;2.60;;
5684;SDS011;2865;53.114;9.130;2023-03-25T06:57:16;2.43;;;2.23;;
5684;SDS011;2865;53.114;9.130;2023-03-25T06:59:42;15.17;;;4.00;;
5684;SDS011;2865;53.114;9.130;2023-03-25T07:02:09;3.00;;;2.30;;
5684;SDS011;2865;53.114;9.130;2023-03-25T07:04:32;5.03;;;2.90;;
5684;SDS011;2865;53.114;9.130;2023-03-25T07:06:58;2.93;;;2.33;;
5684;SDS011;2865;53.114;9.130;2023-03-25T07:09:23;4.30;;;2.20;;
5684;SDS011;2865;53.114;9.130;2023-03-25T07:11:48;9.20;;;3.03;;
5684;SDS011;2865;53.114;9.130;2023-03-25T07:14:14;4.63;;;2.40;;
5684;SDS011;2865;53.114;9.130;2023-03-25T07:16:39;4.10;;;2.70;;
5684;SDS011;2865;53.114;9.130;2023-03-25T07:19:05;7.70;;;2.47;;
5684;SDS011;2865;53.114;9.130;2023-03-25T07:21:30;5.13;;;2.33;;
5684;SDS011;2865;53.114;9.130;2023-03-25T07:23:55;2.87;;;2.37;;
5684;SDS011;2865;53.114;9.130;2023-03-25T07:26:21;4.10;;;2.53;;
5684;SDS011;2865;53.114;9.130;2023-03-25T07:28:46;3.60;;;2.13;;
5684;SDS011;2865;53.114;9.130;2023-03-25T07:31:12;3.83;;;2.83;;
5684;SDS011;2865;53.114;9.130;2023-03-25T07:33:37;3.87;;;2.40;;
5684;SDS011;2865;53.114;9.130;2023-03-25T07:36:03;6.07;;;2.70;;
5684;SDS011;2865;53.114;9.130;2023-03-25T07:38:29;3.90;;;2.13;;
5684;SDS011;2865;53.114;9.130;2023-03-25T07:40:55;3.57;;;2.27;;
5684;SDS011;2865;53.114;9.130;2023-03-25T07:43:20;3.23;;;2.27;;
5684;SDS011;2865;53.114;9.130;2023-03-25T07:45:45;3.03;;;2.33;;
5684;SDS011;2865;53.114;9.130;2023-03-25T07:48:11;4.33;;;2.60;;
5684;SDS011;2865;53.114;9.130;2023-03-25T07:50:38;7.67;;;3.33;;
5684;SDS011;2865;53.114;9.130;2023-03-25T07:53:03;2.73;;;2.00;;
5684;SDS011;2865;53.114;9.130;2023-03-25T07:55:29;3.23;;;2.40;;
5684;SDS011;2865;53.114;9.130;2023-03-25T07:57:54;2.97;;;2.20;;
5684;SDS011;2865;53.114;9.130;2023-03-25T08:00:20;6.90;;;2.37;;
5684;SDS011;2865;53.114;9.130;2023-03-25T08:02:45;4.20;;;2.07;;
5684;SDS011;2865;53.114;9.130;2023-03-25T08:05:11;3.40;;;2.10;;
5684;SDS011;2865;53.114;9.130;2023-03-25T08:07:36;2.83;;;2.10;;
5684;SDS011;2865;53.114;9.130;2023-03-25T08:10:02;7.17;;;3.53;;
5684;SDS011;2865;53.114;9.130;2023-03-25T08:12:27;6.23;;;2.30;;
5684;SDS011;2865;53.114;9.130;2023-03-25T08:14:52;3.03;;;2.70;;
5684;SDS011;2865;53.114;9.130;2023-03-25T08:17:18;9.90;;;2.33;;
5684;SDS011;2865;53.114;9.130;2023-03-25T08:19:43;3.57;;;2.10;;
5684;SDS011;2865;53.114;9.130;2023-03-25T08:22:08;3.17;;;1.97;;
5684;SDS011;2865;53.114;9.130;2023-03-25T08:24:34;7.40;;;1.57;;
5684;SDS011;2865;53.114;9.130;2023-03-25T08:26:59;4.53;;;2.00;;
5684;SDS011;2865;53.114;9.130;2023-03-25T08:29:25;3.67;;;2.00;;
5684;SDS011;2865;53.114;9.130;2023-03-25T08:31:50;4.70;;;1.87;;
5684;SDS011;2865;53.114;9.130;2023-03-25T08:34:15;1.83;;;1.73;;
5684;SDS011;2865;53.114;9.130;2023-03-25T08:36:41;1.70;;;1.60;;
5684;SDS011;2865;53.114;9.130;2023-03-25T08:39:06;1.80;;;1.70;;
5684;SDS011;2865;53.114;9.130;2023-03-25T08:41:34;1.47;;;1.47;;
5684;SDS011;2865;53.114;9.130;2023-03-25T08:43:59;1.70;;;1.60;;
5684;SDS011;2865;53.114;9.130;2023-03-25T08:46:24;2.33;;;1.43;;
5684;SDS011;2865;53.114;9.130;2023-03-25T08:48:50;4.53;;;1.70;;
5684;SDS011;2865;53.114;9.130;2023-03-25T08:51:15;2.30;;;1.70;;
5684;SDS011;2865;53.114;9.130;2023-03-25T08:53:41;3.20;;;1.70;;
5684;SDS011;2865;53.114;9.130;2023-03-25T08:56:08;3.00;;;1.80;;
5684;SDS011;2865;53.114;9.130;2023-03-25T08:58:33;2.37;;;1.87;;
5684;SDS011;2865;53.114;9.130;2023-03-25T09:00:58;2.70;;;2.23;;
5684;SDS011;2865;53.114;9.130;2023-03-25T09:03:24;3.33;;;1.80;;
5684;SDS011;2865;53.114;9.130;2023-03-25T09:05:49;4.90;;;1.80;;
5684;SDS011;2865;53.114;9.130;2023-03-25T09:08:14;3.00;;;2.07;;
5684;SDS011;2865;53.114;9.130;2023-03-25T09:10:40;2.10;;;1.90;;
5684;SDS011;2865;53.114;9.130;2023-03-25T09:13:05;2.80;;;2.03;;
5684;SDS011;2865;53.114;9.130;2023-03-25T09:15:31;2.70;;;1.80;;
5684;SDS011;2865;53.114;9.130;2023-03-25T09:17:56;3.53;;;1.80;;
5684;SDS011;2865;53.114;9.130;2023-03-25T09:20:21;7.30;;;2.23;;
5684;SDS011;2865;53.114;9.130;2023-03-25T09:22:47;2.27;;;1.70;;
5684;SDS011;2865;53.114;9.130;2023-03-25T09:25:12;2.13;;;1.70;;
5684;SDS011;2865;53.114;9.130;2023-03-25T09:27:38;2.30;;;1.60;;
5684;SDS011;2865;53.114;9.130;2023-03-25T09:30:04;2.70;;;1.90;;
5684;SDS011;2865;53.114;9.130;2023-03-25T09:32:30;3.00;;;1.90;;
5684;SDS011;2865;53.114;9.130;2023-03-25T09:34:55;2.43;;;1.50;;
5684;SDS011;2865;53.114;9.130;2023-03-25T09:37:21;2.97;;;1.77;;
5684;SDS011;2865;53.114;9.130;2023-03-25T09:39:46;5.67;;;2.37;;
5684;SDS011;2865;53.114;9.130;2023-03-25T09:44:54;2.57;;;1.83;;
5684;SDS011;2865;53.114;9.130;2023-03-25T09:47:19;5.27;;;2.63;;
5684;SDS011;2865;53.114;9.130;2023-03-25T09:49:45;6.20;;;2.20;;
5684;SDS011;2865;53.114;9.130;2023-03-25T09:52:15;3.63;;;2.03;;
5684;SDS011;2865;53.114;9.130;2023-03-25T09:54:43;7.80;;;2.30;;
5684;SDS011;2865;53.114;9.130;2023-03-25T09:57:06;5.20;;;3.00;;
5684;SDS011;2865;53.114;9.130;2023-03-25T09:59:36;4.97;;;2.50;;
5684;SDS011;2865;53.114;9.130;2023-03-25T10:02:04;5.73;;;2.30;;
5684;SDS011;2865;53.114;9.130;2023-03-25T10:07:15;5.13;;;2.30;;
5684;SDS011;2865;53.114;9.130;2023-03-25T10:09:46;9.40;;;2.60;;
5684;SDS011;2865;53.114;9.130;2023-03-25T10:14:51;4.03;;;2.63;;
5684;SDS011;2865;53.114;9.130;2023-03-25T10:17:20;6.40;;;2.37;;
5684;SDS011;2865;53.114;9.130;2023-03-25T10:19:52;9.90;;;2.47;;
5684;SDS011;2865;53.114;9.130;2023-03-25T10:24:51;7.30;;;2.43;;
5684;SDS011;2865;53.114;9.130;2023-03-25T10:27:22;4.73;;;2.53;;
5684;SDS011;2865;53.114;9.130;2023-03-25T10:29:48;12.70;;;3.00;;
5684;SDS011;2865;53.114;9.130;2023-03-25T10:32:15;4.83;;;2.50;;
5684;SDS011;2865;53.114;9.130;2023-03-25T10:34:45;6.23;;;2.70;;
5684;SDS011;2865;53.114;9.130;2023-03-25T10:37:09;2.90;;;2.10;;
5684;SDS011;2865;53.114;9.130;2023-03-25T10:39:34;4.50;;;2.10;;
5684;SDS011;2865;53.114;9.130;2023-03-25T10:42:02;6.17;;;2.57;;
5684;SDS011;2865;53.114;9.130;2023-03-25T10:44:25;5.13;;;2.50;;
5684;SDS011;2865;53.114;9.130;2023-03-25T10:46:56;3.90;;;2.30;;
5684;SDS011;2865;53.114;9.130;2023-03-25T10:49:23;7.67;;;2.30;;
5684;SDS011;2865;53.114;9.130;2023-03-25T10:51:48;5.40;;;2.50;;
5684;SDS011;2865;53.114;9.130;2023-03-25T10:54:13;2.97;;;2.40;;
5684;SDS011;2865;53.114;9.130;2023-03-25T10:56:40;2.27;;;2.17;;
5684;SDS011;2865;53.114;9.130;2023-03-25T11:01:49;7.17;;;2.47;;
5684;SDS011;2865;53.114;9.130;2023-03-25T11:04:17;3.80;;;2.20;;
5684;SDS011;2865;53.114;9.130;2023-03-25T11:06:44;4.73;;;2.63;;
5684;SDS011;2865;53.114;9.130;2023-03-25T11:09:14;5.47;;;3.10;;
5684;SDS011;2865;53.114;9.130;2023-03-25T11:11:44;4.67;;;3.00;;
5684;SDS011;2865;53.114;9.130;2023-03-25T11:14:10;6.67;;;3.57;;
5684;SDS011;2865;53.114;9.130;2023-03-25T11:16:40;6.00;;;2.87;;
5684;SDS011;2865;53.114;9.130;2023-03-25T11:19:01;5.17;;;3.80;;
5684;SDS011;2865;53.114;9.130;2023-03-25T11:21:34;6.57;;;3.43;;
5684;SDS011;2865;53.114;9.130;2023-03-25T11:24:00;6.33;;;3.30;;
5684;SDS011;2865;53.114;9.130;2023-03-25T11:26:26;6.27;;;3.00;;
5684;SDS011;2865;53.114;9.130;2023-03-25T11:28:53;3.10;;;2.50;;
5684;SDS011;2865;53.114;9.130;2023-03-25T11:31:20;2.87;;;2.43;;
5684;SDS011;2865;53.114;9.130;2023-03-25T11:33:46;2.47;;;2.27;;
5684;SDS011;2865;53.114;9.130;2023-03-25T11:36:20;5.33;;;2.60;;
5684;SDS011;2865;53.114;9.130;2023-03-25T11:38:45;9.90;;;2.80;;
5684;SDS011;2865;53.114;9.130;2023-03-25T11:41:10;4.00;;;2.40;;
5684;SDS011;2865;53.114;9.130;2023-03-25T11:43:36;4.30;;;2.50;;
5684;SDS011;2865;53.114;9.130;2023-03-25T11:46:06;8.60;;;2.33;;
5684;SDS011;2865;53.114;9.130;2023-03-25T11:48:31;8.20;;;2.40;;
5684;SDS011;2865;53.114;9.130;2023-03-25T11:50:57;5.80;;;2.70;;
5684;SDS011;2865;53.114;9.130;2023-03-25T11:53:22;3.00;;;1.90;;
5684;SDS011;2865;53.114;9.130;2023-03-25T11:55:49;5.90;;;2.40;;
5684;SDS011;2865;53.114;9.130;2023-03-25T11:58:16;4.30;;;2.20;;
5684;SDS011;2865;53.114;9.130;2023-03-25T12:00:41;5.17;;;2.00;;
5684;SDS011;2865;53.114;9.130;2023-03-25T12:03:15;5.20;;;2.40;;
5684;SDS011;2865;53.114;9.130;2023-03-25T12:06:04;7.27;;;2.40;;
5684;SDS011;2865;53.114;9.130;2023-03-25T12:08:52;3.33;;;2.60;;
5684;SDS011;2865;53.114;9.130;2023-03-25T12:11:23;6.60;;;3.10;;
5684;SDS011;2865;53.114;9.130;2023-03-25T12:16:28;3.60;;;2.40;;
5684;SDS011;2865;53.114;9.130;2023-03-25T12:19:11;3.80;;;2.17;;
5684;SDS011;2865;53.114;9.130;2023-03-25T12:21:45;5.03;;;2.10;;
5684;SDS011;2865;53.114;9.130;2023-03-25T12:24:17;2.40;;;1.73;;
5684;SDS011;2865;53.114;9.130;2023-03-25T12:26:48;3.27;;;1.90;;
5684;SDS011;2865;53.114;9.130;2023-03-25T12:29:18;4.10;;;2.23;;
5684;SDS011;2865;53.114;9.130;2023-03-25T12:34:45;4.27;;;1.90;;
5684;SDS011;2865;53.114;9.130;2023-03-25T12:37:24;2.40;;;2.20;;
5684;SDS011;2865;53.114;9.130;2023-03-25T12:40:13;2.83;;;2.13;;
5684;SDS011;2865;53.114;9.130;2023-03-25T12:42:40;5.53;;;2.70;;
5684;SDS011;2865;53.114;9.130;2023-03-25T12:47:55;5.93;;;2.03;;
5684;SDS011;2865;53.114;9.130;2023-03-25T12:50:22;3.27;;;2.10;;
5684;SDS011;2865;53.114;9.130;2023-03-25T12:52:52;3.50;;;2.10;;
5684;SDS011;2865;53.114;9.130;2023-03-25T12:55:22;4.40;;;2.13;;
5684;SDS011;2865;53.114;9.130;2023-03-25T12:57:54;3.40;;;1.70;;
5684;SDS011;2865;53.114;9.130;2023-03-25T13:03:28;5.60;;;1.77;;
5684;SDS011;2865;53.114;9.130;2023-03-25T13:05:53;5.80;;;2.77;;
5684;SDS011;2865;53.114;9.130;2023-03-25T13:08:40;2.13;;;1.50;;
5684;SDS011;2865;53.114;9.130;2023-03-25T13:11:06;3.50;;;1.80;;
5684;SDS011;2865;53.114;9.130;2023-03-25T13:13:30;4.93;;;1.60;;
5684;SDS011;2865;53.114;9.130;2023-03-25T13:16:02;1.60;;;1.50;;
5684;SDS011;2865;53.114;9.130;2023-03-25T13:18:27;2.43;;;1.57;;
5684;SDS011;2865;53.114;9.130;2023-03-25T13:20:57;2.87;;;1.70;;
5684;SDS011;2865;53.114;9.130;2023-03-25T13:23:23;2.50;;;1.73;;
5684;SDS011;2865;53.114;9.130;2023-03-25T13:26:00;1.83;;;1.77;;
5684;SDS011;2865;53.114;9.130;2023-03-25T13:28:30;8.10;;;2.07;;
5684;SDS011;2865;53.114;9.130;2023-03-25T13:30:55;2.00;;;1.60;;
5684;SDS011;2865;53.114;9.130;2023-03-25T13:33:23;2.00;;;1.80;;
5684;SDS011;2865;53.114;9.130;2023-03-25T13:35:49;2.63;;;1.50;;
5684;SDS011;2865;53.114;9.130;2023-03-25T13:38:15;4.03;;;1.73;;
5684;SDS011;2865;53.114;9.130;2023-03-25T13:43:34;6.60;;;1.70;;
5684;SDS011;2865;53.114;9.130;2023-03-25T13:46:00;1.93;;;1.50;;
5684;SDS011;2865;53.114;9.130;2023-03-25T13:48:32;3.90;;;1.83;;
5684;SDS011;2865;53.114;9.130;2023-03-25T13:50:57;2.23;;;1.80;;
5684;SDS011;2865;53.114;9.130;2023-03-25T13:53:24;1.40;;;1.30;;
5684;SDS011;2865;53.114;9.130;2023-03-25T13:55:58;1.40;;;1.30;;
5684;SDS011;2865;53.114;9.130;2023-03-25T13:58:33;5.33;;;1.40;;
5684;SDS011;2865;53.114;9.130;2023-03-25T14:01:02;3.70;;;1.87;;
5684;SDS011;2865;53.114;9.130;2023-03-25T14:04:07;4.87;;;1.50;;
5684;SDS011;2865;53.114;9.130;2023-03-25T14:06:34;4.37;;;2.20;;
5684;SDS011;2865;53.114;9.130;2023-03-25T14:11:50;6.90;;;1.60;;
5684;SDS011;2865;53.114;9.130;2023-03-25T14:14:15;2.03;;;1.80;;
5684;SDS011;2865;53.114;9.130;2023-03-25T14:16:42;6.83;;;3.27;;
5684;SDS011;2865;53.114;9.130;2023-03-25T14:19:08;2.30;;;1.60;;
5684;SDS011;2865;53.114;9.130;2023-03-25T14:21:41;5.60;;;2.20;;
5684;SDS011;2865;53.114;9.130;2023-03-25T14:24:12;3.10;;;1.67;;
5684;SDS011;2865;53.114;9.130;2023-03-25T14:26:40;3.77;;;1.90;;
5684;SDS011;2865;53.114;9.130;2023-03-25T14:29:07;6.07;;;1.93;;
5684;SDS011;2865;53.114;9.130;2023-03-25T14:31:32;3.07;;;2.13;;
5684;SDS011;2865;53.114;9.130;2023-03-25T14:37:14;6.00;;;1.83;;
5684;SDS011;2865;53.114;9.130;2023-03-25T14:39:37;1.73;;;1.47;;
5684;SDS011;2865;53.114;9.130;2023-03-25T14:42:03;6.53;;;1.80;;
5684;SDS011;2865;53.114;9.130;2023-03-25T14:44:29;2.17;;;1.93;;
5684;SDS011;2865;53.114;9.130;2023-03-25T14:47:00;4.80;;;2.13;;
5684;SDS011;2865;53.114;9.130;2023-03-25T14:49:46;4.57;;;1.93;;
5684;SDS011;2865;53.114;9.130;2023-03-25T14:52:10;3.27;;;1.53;;
5684;SDS011;2865;53.114;9.130;2023-03-25T14:54:35;4.27;;;1.87;;
5684;SDS011;2865;53.114;9.130;2023-03-25T14:57:05;10.10;;;2.07;;
5684;SDS011;2865;53.114;9.130;2023-03-25T14:59:38;2.57;;;1.57;;
5684;SDS011;2865;53.114;9.130;2023-03-25T15:02:20;7.57;;;2.27;;
5684;SDS011;2865;53.114;9.130;2023-03-25T15:04:56;4.73;;;1.97;;
5684;SDS011;2865;53.114;9.130;2023-03-25T15:07:40;5.60;;;2.70;;
5684;SDS011;2865;53.114;9.130;2023-03-25T15:10:19;3.03;;;2.20;;
5684;SDS011;2865;53.114;9.130;2023-03-25T15:12:47;6.20;;;2.20;;
5684;SDS011;2865;53.114;9.130;2023-03-25T15:15:24;4.10;;;2.00;;
5684;SDS011;2865;53.114;9.130;2023-03-25T15:17:43;8.13;;;1.87;;
5684;SDS011;2865;53.114;9.130;2023-03-25T15:20:10;4.23;;;1.77;;
5684;SDS011;2865;53.114;9.130;2023-03-25T15:22:36;2.27;;;2.07;;
5684;SDS011;2865;53.114;9.130;2023-03-25T15:25:02;6.40;;;2.07;;
5684;SDS011;2865;53.114;9.130;2023-03-25T15:27:32;3.43;;;1.63;;
5684;SDS011;2865;53.114;9.130;2023-03-25T15:30:24;2.40;;;2.00;;
5684;SDS011;2865;53.114;9.130;2023-03-25T15:35:48;7.80;;;2.17;;
5684;SDS011;2865;53.114;9.130;2023-03-25T15:38:27;6.30;;;2.40;;
5684;SDS011;2865;53.114;9.130;2023-03-25T15:41:15;8.23;;;2.20;;
5684;SDS011;2865;53.114;9.130;2023-03-25T15:46:36;4.93;;;2.10;;
5684;SDS011;2865;53.114;9.130;2023-03-25T15:54:30;6.20;;;2.60;;
5684;SDS011;2865;53.114;9.130;2023-03-25T15:56:55;3.57;;;1.63;;
5684;SDS011;2865;53.114;9.130;2023-03-25T15:59:24;3.40;;;2.17;;
5684;SDS011;2865;53.114;9.130;2023-03-25T16:01:59;3.17;;;2.40;;
5684;SDS011;2865;53.114;9.130;2023-03-25T16:04:30;12.30;;;2.70;;
5684;SDS011;2865;53.114;9.130;2023-03-25T16:06:56;6.83;;;2.13;;